William P Hobby Airport
KHOU : rendu visible

Aérodrome :











RETROUVEZ-NOUS SUR...

 
LOGIN :

S'inscrire | Disclaimer

   EN    FR    IT 

 









Légende :    VFR   VFR Marginal   IFR   IFR Intensif   IFR Très Intensif
Visi : 
Plafond : 
>= 8 km
>= 3000ft
5 à 8 km
1000 à 3000 ft
1500m à 5 km
500 à 1000 ft
800 à 1500m
200 à 500 ft
< 800m
< 200 ft
Symboles :   Orages  Brouillard  Fortes neiges  Fortes précipitations  Vent > 20 kt






- Altitude de l'aérodrome : 46 ft
- Code IATA : HOU


KHOU - William P Hobby

DERNIER METAR :
  • 280653Z 12012KT 10SM OVC016 14/11 A2994 RMK AO2 SLP142 T01440106

METARs EXPIRÉS :
  • 280553Z 11010KT 10SM OVC016 14/11 A2996 RMK AO2 SLP148 T01440106 10144 20133 401830133 58015
  • 280453Z 11011KT 10SM OVC015 14/10 A2999 RMK AO2 SLP160 T01390100
  • 280430Z 12012KT 10SM OVC015 14/10 A2999 RMK AO2 T01390100

TAF KHOU
Valide du 28 à 06h jusqu'au 29 à 06h UTC


280521Z 2806/2906 11011KT P6SM OVC015
FM281000 VRB03KT 5SM BR VCSH SCT007 OVC015
FM281500 11007KT 5SM -SHRA SCT010 OVC020
FM281700 16012G20KT 6SM -SHRA OVC020
FM282300 19008KT P6SM VCSH BKN015 OVC025
FM290500 30008KT P6SM VCSH BKN035



MET'MAP, la Météo Aéronautique d'un coup d'oeil ! - Copyright ORBIFLY Décembre 2007 - Disclaimer

ORBIFLY MET'MAP TEAM :

Programmation & Développement : Alexandra Zaïnal
Sur une idée originale de : Baudouin d'Aumeries
Assistance à la programmation : Marc-Olivier Méhu
Soutien technique & logistique : Manuel Goepfert

Contact : metmap@orbifly.com




SOURCES & CREDITS :

   NOAA       Earth
Advisory